createdAt,value
2023-02-15T00:02:49.290Z,14.60
2023-02-15T00:10:24.516Z,15.02
2023-02-15T00:17:59.085Z,14.52
2023-02-15T00:25:34.422Z,14.63
2023-02-15T00:33:08.452Z,15.65
2023-02-15T00:40:43.541Z,14.18
2023-02-15T00:48:17.366Z,15.02
2023-02-15T00:55:52.479Z,14.83
2023-02-15T01:03:26.372Z,14.75
2023-02-15T01:11:05.821Z,13.83
2023-02-15T01:18:39.613Z,13.75
2023-02-15T01:26:15.229Z,15.20
2023-02-15T01:33:49.819Z,15.27
2023-02-15T01:41:25.058Z,14.75
2023-02-15T01:49:04.182Z,13.70
2023-02-15T01:56:41.919Z,13.68
2023-02-15T02:04:20.836Z,14.65
2023-02-15T02:11:56.186Z,14.93
2023-02-15T02:20:08.530Z,14.63
2023-02-15T02:27:50.109Z,14.80
2023-02-15T02:35:32.114Z,14.30
2023-02-15T02:43:13.894Z,16.27
2023-02-15T02:50:49.763Z,14.27
2023-02-15T02:58:27.511Z,15.32
2023-02-15T03:06:06.817Z,16.33
2023-02-15T03:13:41.888Z,14.57
2023-02-15T03:21:23.131Z,16.35
2023-02-15T03:29:01.003Z,15.15
2023-02-15T03:36:42.504Z,15.63
2023-02-15T03:44:20.915Z,15.10
2023-02-15T03:51:59.672Z,17.45
2023-02-15T03:59:51.062Z,14.43
2023-02-15T04:07:26.258Z,16.40
2023-02-15T04:15:17.570Z,19.48
2023-02-15T04:23:10.539Z,18.45
2023-02-15T04:30:44.316Z,19.58
2023-02-15T04:38:19.524Z,22.13
2023-02-15T04:45:53.365Z,23.30
2023-02-15T04:53:28.981Z,23.05
2023-02-15T05:01:03.100Z,24.05
2023-02-15T05:08:38.399Z,24.08
2023-02-15T05:16:12.277Z,26.30
2023-02-15T05:23:47.575Z,24.92
2023-02-15T05:31:22.218Z,25.33
2023-02-15T05:38:57.572Z,23.52
2023-02-15T05:46:31.625Z,23.13
2023-02-15T06:01:41.145Z,23.10
2023-02-15T06:09:19.246Z,24.27
2023-02-15T06:16:53.141Z,23.88
2023-02-15T06:24:28.630Z,22.83
2023-02-15T06:32:02.631Z,23.45
2023-02-15T06:47:11.961Z,21.20
2023-02-15T07:09:56.056Z,21.50
2023-02-15T07:17:38.055Z,20.27
2023-02-15T07:25:14.161Z,20.33
2023-02-15T07:33:05.984Z,19.67
2023-02-15T07:40:41.365Z,19.30
2023-02-15T07:48:15.296Z,19.35
2023-02-15T07:55:50.492Z,20.23
2023-02-15T08:03:28.632Z,22.33
2023-02-15T08:11:23.409Z,21.85
2023-02-15T08:26:33.714Z,16.88
2023-02-15T08:34:07.961Z,19.70
2023-02-15T08:41:45.758Z,18.33
2023-02-15T08:49:21.378Z,23.08
2023-02-15T08:56:56.613Z,19.73
2023-02-15T09:04:30.762Z,22.13
2023-02-15T09:12:06.285Z,20.23
2023-02-15T09:19:40.075Z,18.88
2023-02-15T09:27:15.361Z,20.60
2023-02-15T09:34:49.212Z,23.92
2023-02-15T09:42:56.297Z,23.38
2023-02-15T09:50:37.045Z,25.33
2023-02-15T09:58:20.931Z,22.45
2023-02-15T10:06:12.809Z,26.70
2023-02-15T10:13:56.449Z,26.35
2023-02-15T10:21:43.666Z,28.00
2023-02-15T10:29:30.392Z,26.00
2023-02-15T10:37:22.203Z,26.90
2023-02-15T10:45:12.468Z,29.00
2023-02-15T10:53:01.280Z,29.25
2023-02-15T11:00:44.086Z,30.08
2023-02-15T11:08:19.211Z,31.25
2023-02-15T11:15:59.435Z,33.20
2023-02-15T11:23:37.755Z,31.75
2023-02-15T11:31:19.120Z,28.73
2023-02-15T11:38:59.287Z,31.65
2023-02-15T11:46:34.617Z,27.45
2023-02-15T11:54:10.868Z,25.33
2023-02-15T12:01:48.019Z,24.70
2023-02-15T12:09:32.581Z,23.80
2023-02-15T12:17:15.756Z,25.65
2023-02-15T12:24:52.233Z,22.08
2023-02-15T12:32:30.688Z,22.60
2023-02-15T12:40:22.345Z,20.08
2023-02-15T12:48:16.938Z,21.75
2023-02-15T12:55:56.456Z,20.47
2023-02-15T13:03:32.357Z,18.38
2023-02-15T13:11:10.363Z,14.65
2023-02-15T13:18:47.819Z,16.77
2023-02-15T13:26:24.573Z,15.30
2023-02-15T13:34:05.217Z,14.52
2023-02-15T13:41:52.731Z,15.13
2023-02-15T13:49:42.073Z,12.73
2023-02-15T13:57:41.284Z,12.27
2023-02-15T14:05:29.313Z,12.23
2023-02-15T14:13:33.160Z,12.10
2023-02-15T14:21:17.455Z,12.80
2023-02-15T14:29:01.435Z,11.30
2023-02-15T14:36:37.063Z,10.70
2023-02-15T14:44:16.272Z,9.23
2023-02-15T14:52:00.045Z,10.30
2023-02-15T14:59:41.423Z,10.65
2023-02-15T15:07:23.216Z,9.10
2023-02-15T15:14:57.088Z,8.43
2023-02-15T15:22:33.487Z,8.18
2023-02-15T15:30:40.701Z,8.10
2023-02-15T15:38:35.204Z,8.20
2023-02-15T15:46:31.814Z,7.82
2023-02-15T15:54:07.401Z,7.30
2023-02-15T16:01:44.705Z,7.40
2023-02-15T16:09:22.564Z,7.50
2023-02-15T16:16:59.697Z,8.13
2023-02-15T16:24:55.287Z,7.65
2023-02-15T16:40:05.475Z,8.35
2023-02-15T16:47:43.562Z,6.88
2023-02-15T16:55:24.560Z,7.13
2023-02-15T17:03:02.047Z,6.97
2023-02-15T17:10:43.071Z,7.50
2023-02-15T17:18:20.702Z,7.82
2023-02-15T17:25:56.367Z,7.30
2023-02-15T17:33:40.408Z,7.85
2023-02-15T17:41:15.710Z,7.93
2023-02-15T17:48:51.403Z,9.00
2023-02-15T17:56:26.630Z,8.90
2023-02-15T18:04:18.086Z,9.73
2023-02-15T18:11:53.512Z,8.48
2023-02-15T18:19:28.014Z,10.30
2023-02-15T18:27:03.285Z,9.65
2023-02-15T18:34:41.066Z,11.27
2023-02-15T18:42:23.086Z,10.93
2023-02-15T18:49:57.042Z,11.45
2023-02-15T18:57:33.556Z,11.60
2023-02-15T19:05:07.682Z,10.27
2023-02-15T19:12:43.118Z,10.27
2023-02-15T19:20:19.608Z,12.02
2023-02-15T19:27:55.908Z,11.18
2023-02-15T19:35:32.973Z,10.98
2023-02-15T19:43:16.111Z,11.52
2023-02-15T19:50:50.633Z,10.13
2023-02-15T20:05:59.974Z,10.82
2023-02-15T20:13:35.344Z,10.85
2023-02-15T20:21:16.477Z,9.57
2023-02-15T20:28:52.615Z,9.98
2023-02-15T20:36:26.363Z,10.45
2023-02-15T20:44:01.871Z,10.57
2023-02-15T20:51:35.929Z,12.13
2023-02-15T20:59:21.592Z,11.77
2023-02-15T21:06:56.092Z,11.07
2023-02-15T21:22:05.161Z,12.50
2023-02-15T21:29:40.470Z,15.10
2023-02-15T21:37:31.499Z,16.58
2023-02-15T21:45:32.855Z,17.40
2023-02-15T21:53:08.586Z,15.40
2023-02-15T22:00:45.046Z,13.73
2023-02-15T22:08:19.942Z,14.30
2023-02-15T22:15:55.313Z,15.23
2023-02-15T22:23:29.119Z,15.48
2023-02-15T22:31:06.764Z,15.53
2023-02-15T22:38:41.072Z,15.63
2023-02-15T22:46:19.967Z,15.63
2023-02-15T22:53:53.815Z,18.05
2023-02-15T23:01:32.800Z,16.60
2023-02-15T23:09:06.716Z,17.45
2023-02-15T23:16:42.197Z,16.23
2023-02-15T23:24:20.847Z,15.70
2023-02-15T23:31:56.999Z,17.10
2023-02-15T23:39:48.588Z,16.45
2023-02-15T23:47:42.622Z,16.33
2023-02-15T23:55:17.211Z,16.33
